SANTA FE DAM CA US current weather conditions

sailwx.info

Wind from 222 at 6 knots gusting 14

Air temperature 28.9° C
Dewpoint 17.7° C

Last reported at 2014-Sep-20 23:57 UTC.
Time now 2014-Sep-21 02:06 UTC

Location: N 34°08' W 117°57'.
View on Google Maps.

See reports from other nearby stations

  
Tides and Currents Weather Stations Pressure Air Temp Water Temp Dewpoint Dewpoint Depression Visibility Wind Speed Wind Dir Waves Ship Positions
date/time (UTC)wind fromknots sea level pressurealtimeterstation pressurevisibilityair tempwater tempwave heightnotes
2014-Sep-21 00:57 220 6 gusting 13 26.7
2014-Sep-20 23:57 222 6 gusting 14 28.9
2014-Sep-20 22:57 233 6 gusting 13 29.4
2014-Sep-20 21:57 216 6 gusting 13 28.3
2014-Sep-20 20:57 240 6 gusting 12 27.8
2014-Sep-20 19:57 258 6 gusting 13 26.1
2014-Sep-20 18:57 237 5 gusting 10 25.6
2014-Sep-20 17:57 311 4 gusting 9 25.0
2014-Sep-20 16:57 146 4 gusting 7 23.3
2014-Sep-20 15:57 284 1 gusting 6 21.1
2014-Sep-20 14:57 032 3 gusting 6 20.6
2014-Sep-20 13:57 034 0 gusting 3 19.4
2014-Sep-20 12:57 357 2 gusting 3 17.8
2014-Sep-20 11:57 028 0 gusting 1 16.1
2014-Sep-20 10:57 285 1 gusting 2 17.2
2014-Sep-20 09:57 359 1 gusting 3 17.8
2014-Sep-20 08:57 157 0 gusting 3 18.3
2014-Sep-20 07:57 213 1 gusting 2 18.9
2014-Sep-20 06:57 208 2 gusting 3 19.4
2014-Sep-20 05:57 209 1 gusting 4 18.9
2014-Sep-20 04:57 229 1 gusting 6 20.6
2014-Sep-20 03:57 221 2 gusting 6 21.1
2014-Sep-20 02:57 216 4 gusting 10 21.7
2014-Sep-20 01:57 220 5 gusting 13 23.3
2014-Sep-20 00:57 223 7 gusting 14 26.7
2014-Sep-19 23:57 239 6 gusting 16 30.0
2014-Sep-19 22:57 252 8 gusting 15 31.1
2014-Sep-19 21:57 198 5 gusting 14 31.7
2014-Sep-19 20:57 001 5 gusting 13 31.1
2014-Sep-19 19:57 151 6 gusting 12 30.6
2014-Sep-19 18:57 117 4 gusting 10 30.0
2014-Sep-19 17:57 124 3 gusting 7 27.8
2014-Sep-19 16:57 247 2 gusting 6 25.6
2014-Sep-19 15:57 247 3 gusting 6 22.2
2014-Sep-19 14:57 229 3 gusting 5 21.7
2014-Sep-19 13:57 125 2 gusting 5 21.1
2014-Sep-19 12:57 024 3 gusting 6 21.1
2014-Sep-19 11:57 034 0 gusting 4 20.0
2014-Sep-19 10:57 211 2 gusting 4 20.0
2014-Sep-19 09:57 196 1 gusting 4 19.4
2014-Sep-19 08:57 140 3 gusting 6 21.1
2014-Sep-19 07:57 127 0 gusting 5 20.6
2014-Sep-19 06:57 148 3 gusting 4 20.0
2014-Sep-19 05:57 208 1 gusting 3 19.4
2014-Sep-19 04:57 202 2 gusting 4 19.4
2014-Sep-19 03:57 221 3 gusting 7 20.6
2014-Sep-19 02:57 225 5 gusting 10 22.2